Time;durP1;ratioP1;P1;durP2;ratioP2;P2;SDS_P1;SDS_P2;PMS_P1;PMS_P2;Temp;Humidity;BMP_temperature;BMP_pressure;BME280_temperature;BME280_humidity;BME280_pressure;Samples;Min_cycle;Max_cycle;Signal;HPM_P1;HPM_P2
2022/08/22 00:02:29;;;;;;;6.45;4.65;;;;;;;21.16;33.71;100144.06;5007383;28;20111;-67
2022/08/22 00:05:22;;;;;;;8.18;4.80;;;;;;;21.12;33.43;100134.56;5017331;28;20047;-70
2022/08/22 00:07:59;;;;;;;8.93;3.67;;;;;;;21.20;33.37;100141.94;5017524;28;20045;-69
2022/08/22 00:10:37;;;;;;;8.35;5.03;;;;;;;21.14;33.50;100146.09;5017391;28;20044;-67
2022/08/22 00:13:10;;;;;;;10.10;5.60;;;;;;;21.20;33.58;100140.06;5033118;28;20053;-66
2022/08/22 00:15:43;;;;;;;11.68;5.75;;;;;;;21.11;33.56;100146.41;5017193;28;20036;-67
2022/08/22 00:18:16;;;;;;;7.30;4.30;;;;;;;21.16;33.56;100143.22;5017138;28;20037;-66
2022/08/22 00:20:59;;;;;;;11.25;5.60;;;;;;;21.10;33.63;100149.31;5017349;28;20502;-66
2022/08/22 00:23:31;;;;;;;9.88;4.93;;;;;;;21.03;34.00;100151.81;5016927;28;20060;-71
2022/08/22 00:26:30;;;;;;;12.05;5.38;;;;;;;21.19;33.62;100145.66;5015529;28;20049;-73
2022/08/22 00:29:01;;;;;;;12.10;5.53;;;;;;;21.09;33.82;100147.63;5031684;28;20052;-75
2022/08/22 00:31:38;;;;;;;9.07;5.03;;;;;;;21.15;33.68;100149.66;4998300;28;20132;-69
2022/08/22 00:34:16;;;;;;;10.15;5.72;;;;;;;21.14;33.73;100143.38;5020395;28;20068;-71
2022/08/22 00:36:51;;;;;;;10.38;5.50;;;;;;;21.02;34.05;100142.84;5018588;28;20495;-71
2022/08/22 00:39:25;;;;;;;11.32;5.20;;;;;;;21.09;33.92;100143.06;5017266;28;20044;-70
2022/08/22 00:42:20;;;;;;;12.10;5.75;;;;;;;21.16;33.75;100144.06;5020741;28;20041;-75
2022/08/22 00:44:56;;;;;;;9.77;5.57;;;;;;;21.10;33.82;100144.75;5032869;28;20508;-64
2022/08/22 00:47:34;;;;;;;11.65;6.25;;;;;;;20.95;34.36;100140.97;5038160;28;20753;-65
2022/08/22 00:50:18;;;;;;;10.48;5.43;;;;;;;20.99;34.23;100153.19;5055845;28;20040;-65
2022/08/22 00:53:12;;;;;;;13.25;5.90;;;;;;;20.91;34.60;100154.00;5038000;28;20040;-64
2022/08/22 00:55:43;;;;;;;9.18;6.00;;;;;;;20.94;34.24;100166.38;5045566;28;20044;-65
2022/08/22 00:58:39;;;;;;;11.93;6.60;;;;;;;21.02;34.11;100158.25;5058506;28;20065;-70
2022/08/22 01:01:08;;;;;;;11.15;6.07;;;;;;;21.04;34.04;100161.66;5059597;28;20046;-72
2022/08/22 01:03:51;;;;;;;13.98;6.40;;;;;;;21.00;34.87;100171.97;5060695;28;20032;-70
2022/08/22 01:06:44;;;;;;;8.13;4.82;;;;;;;20.96;34.64;100167.06;5059098;28;20039;-70
2022/08/22 01:09:30;;;;;;;8.50;5.80;;;;;;;20.93;35.20;100161.97;5056354;28;20056;-69
2022/08/22 01:12:10;;;;;;;11.85;5.90;;;;;;;20.88;35.61;100175.16;5055785;28;20131;-70
2022/08/22 01:14:56;;;;;;;8.63;5.38;;;;;;;20.85;35.64;100172.78;5037419;28;20048;-69
2022/08/22 01:18:07;;;;;;;13.70;5.28;;;;;;;20.82;36.25;100167.66;5037647;28;20471;-71
2022/08/22 01:20:54;;;;;;;12.88;5.75;;;;;;;20.72;36.49;100172.38;5037071;28;20044;-68
2022/08/22 01:23:27;;;;;;;10.90;5.97;;;;;;;20.67;37.63;100170.13;5054403;28;20052;-71
2022/08/22 01:26:10;;;;;;;8.50;6.20;;;;;;;20.62;38.63;100167.94;5055630;28;20797;-73
2022/08/22 01:28:41;;;;;;;8.70;6.05;;;;;;;20.57;38.15;100178.38;5055398;28;20285;-75
2022/08/22 01:31:34;;;;;;;11.70;5.28;;;;;;;20.66;37.27;100163.88;5037015;28;20050;-68
2022/08/22 01:34:35;;;;;;;11.48;5.35;;;;;;;20.67;37.06;100159.28;5036615;28;20071;-67
2022/08/22 01:37:25;;;;;;;10.30;4.78;;;;;;;20.62;37.22;100159.78;5056735;28;20036;-75
2022/08/22 01:40:26;;;;;;;8.43;5.38;;;;;;;20.67;37.00;100170.97;5058556;28;20067;-67
2022/08/22 01:43:20;;;;;;;8.98;5.70;;;;;;;20.62;37.46;100161.66;5055617;28;20395;-66
2022/08/22 01:45:51;;;;;;;7.82;4.82;;;;;;;20.61;37.38;100155.38;5056711;28;20480;-65
2022/08/22 01:48:22;;;;;;;9.35;4.88;;;;;;;20.53;37.70;100152.63;5041523;28;20140;-65
2022/08/22 01:51:00;;;;;;;13.05;5.70;;;;;;;20.60;37.54;100158.25;5017446;28;20044;-73
2022/08/22 01:53:29;;;;;;;10.32;5.50;;;;;;;20.43;37.70;100148.34;5035301;28;20094;-71
2022/08/22 01:56:10;;;;;;;11.88;5.78;;;;;;;20.41;37.98;100153.94;5016841;28;20044;-70
2022/08/22 01:58:43;;;;;;;11.57;5.45;;;;;;;20.30;38.48;100151.44;5000022;28;20414;-72
2022/08/22 02:01:43;;;;;;;11.18;5.60;;;;;;;20.38;38.05;100143.41;5016638;28;20040;-72
2022/08/22 02:04:39;;;;;;;9.73;5.07;;;;;;;20.31;38.25;100120.66;5034998;28;20043;-70
2022/08/22 02:07:11;;;;;;;9.75;5.15;;;;;;;20.22;38.43;100133.28;5028264;28;20079;-70
2022/08/22 02:09:58;;;;;;;12.80;5.32;;;;;;;20.27;38.23;100121.97;5016566;28;20040;-71
2022/08/22 02:12:41;;;;;;;9.95;5.10;;;;;;;20.29;38.06;100117.25;5016680;28;20055;-70
2022/08/22 02:15:40;;;;;;;9.57;5.20;;;;;;;20.23;38.19;100126.84;5016821;28;20149;-71
2022/08/22 02:18:05;;;;;;;7.68;5.13;;;;;;;20.16;38.46;100123.09;5002049;28;20048;-71
2022/08/22 02:20:38;;;;;;;9.05;5.20;;;;;;;20.33;38.15;100131.31;5016865;28;20028;-70
2022/08/22 02:23:28;;;;;;;10.30;5.18;;;;;;;20.52;37.90;100150.94;5002986;28;20059;-71
2022/08/22 02:26:02;;;;;;;9.52;5.53;;;;;;;20.54;38.20;100151.59;5036463;28;20123;-71
2022/08/22 02:28:54;;;;;;;9.23;5.53;;;;;;;20.45;38.23;100127.34;5016725;28;20517;-73
2022/08/22 02:31:51;;;;;;;14.38;6.18;;;;;;;20.27;38.81;100139.06;5017017;28;20426;-75
2022/08/22 02:34:25;;;;;;;16.38;6.75;;;;;;;20.25;39.23;100143.78;5030835;28;20048;-75
2022/08/22 02:37:17;;;;;;;14.85;7.43;;;;;;;20.39;38.85;100128.00;5033287;28;20524;-71
2022/08/22 02:39:52;;;;;;;17.92;7.53;;;;;;;20.30;39.17;100141.47;5016766;28;20044;-75
2022/08/22 02:42:52;;;;;;;11.52;6.78;;;;;;;20.34;38.91;100146.53;5035063;28;20410;-78
2022/08/22 02:45:43;;;;;;;10.45;7.45;;;;;;;20.30;39.16;100152.31;4994240;28;20044;-73
2022/08/22 02:48:31;;;;;;;12.85;6.85;;;;;;;20.22;39.37;100157.63;5031011;28;20052;-75
2022/08/22 02:51:28;;;;;;;10.73;7.13;;;;;;;20.15;39.35;100147.63;5054750;28;20442;-75
2022/08/22 02:54:34;;;;;;;18.05;8.02;;;;;;;20.19;39.28;100159.84;5054582;28;20067;-75
2022/08/22 02:57:02;;;;;;;11.80;8.48;;;;;;;20.12;39.39;100156.91;5035790;28;20036;-71
2022/08/22 02:59:34;;;;;;;17.42;8.27;;;;;;;20.15;39.45;100161.16;5054688;28;20523;-73
2022/08/22 03:02:45;;;;;;;25.95;10.60;;;;;;;20.36;38.84;100161.66;5055998;28;20036;-74
2022/08/22 03:05:35;;;;;;;20.98;11.57;;;;;;;20.26;38.75;100164.44;4975095;28;20049;-72
2022/08/22 03:08:21;;;;;;;24.13;12.68;;;;;;;20.17;39.23;100168.13;4916645;29;20466;-73
2022/08/22 03:11:20;;;;;;;20.83;13.15;;;;;;;20.31;38.73;100169.41;4916763;29;20506;-73
2022/08/22 03:14:04;;;;;;;23.42;13.23;;;;;;;20.35;39.00;100164.50;4898293;29;20058;-74
2022/08/22 03:16:39;;;;;;;21.15;14.73;;;;;;;20.17;39.67;100161.84;4914955;29;20593;-73
2022/08/22 03:19:15;;;;;;;25.65;14.02;;;;;;;20.06;39.93;100160.25;4898092;29;20312;-70
2022/08/22 03:21:47;;;;;;;31.90;17.70;;;;;;;20.07;39.73;100166.50;4916831;29;20637;-71
2022/08/22 03:24:19;;;;;;;22.38;15.05;;;;;;;20.04;39.99;100172.22;4917904;29;20051;-74
2022/08/22 03:26:51;;;;;;;29.40;18.05;;;;;;;20.08;39.97;100171.78;4901596;29;20051;-74
2022/08/22 03:29:23;;;;;;;29.45;18.33;;;;;;;20.13;39.55;100174.00;4918033;29;20047;-75
2022/08/22 03:32:13;;;;;;;34.17;20.20;;;;;;;20.19;39.40;100176.94;4917312;29;20502;-72
2022/08/22 03:34:54;;;;;;;31.95;21.00;;;;;;;20.18;39.48;100174.38;4917700;29;20078;-73
2022/08/22 03:37:37;;;;;;;37.58;21.52;;;;;;;20.13;39.93;100182.13;4900402;29;20050;-73
2022/08/22 03:40:33;;;;;;;41.65;23.27;;;;;;;20.18;39.32;100183.34;4917469;29;20047;-72
2022/08/22 03:43:35;;;;;;;40.58;25.45;;;;;;;20.32;39.11;100171.06;4964026;28;20060;-74
2022/08/22 03:46:25;;;;;;;41.92;25.83;;;;;;;20.29;39.37;100171.41;5038234;28;20040;-72
2022/08/22 03:49:40;;;;;;;44.75;24.52;;;;;;;20.35;39.15;100173.50;5056811;28;20135;-75
2022/08/22 03:53:05;;;;;;;57.17;27.35;;;;;;;20.38;39.03;100175.06;5038672;28;20044;-73
2022/08/22 03:55:45;;;;;;;42.08;26.77;;;;;;;20.40;38.99;100171.19;5056579;28;20052;-72
2022/08/22 03:58:36;;;;;;;53.63;30.40;;;;;;;20.40;39.27;100179.31;5038734;28;20127;-72
2022/08/22 04:01:01;;;;;;;55.40;31.75;;;;;;;20.44;38.85;100163.56;4975123;28;20046;-72
2022/08/22 04:03:45;;;;;;;55.47;32.33;;;;;;;20.46;39.25;100172.38;4941951;28;20062;-71
2022/08/22 04:06:36;;;;;;;51.93;33.63;;;;;;;20.45;39.15;100179.66;4974806;28;20045;-72
2022/08/22 04:09:13;;;;;;;60.65;34.70;;;;;;;20.50;39.02;100182.75;4900844;29;20311;-71
2022/08/22 04:11:55;;;;;;;57.53;33.42;;;;;;;20.48;39.43;100181.22;4894988;29;20035;-73
2022/08/22 04:14:49;;;;;;;53.63;33.60;;;;;;;20.53;38.96;100182.44;4902361;29;20059;-72
2022/08/22 04:17:14;;;;;;;50.85;35.35;;;;;;;20.55;38.88;100174.13;4866110;29;20049;-70
2022/08/22 04:20:19;;;;;;;60.08;36.78;;;;;;;20.59;38.84;100167.38;4881864;29;20056;-71
2022/08/22 04:23:18;;;;;;;56.47;36.15;;;;;;;20.58;39.17;100165.69;4897939;29;20077;-71
2022/08/22 04:25:49;;;;;;;63.33;36.88;;;;;;;20.52;39.35;100182.59;4897247;29;20103;-71
2022/08/22 04:28:22;;;;;;;61.20;38.40;;;;;;;20.46;39.54;100173.22;4882121;29;20078;-73
2022/08/22 04:30:55;;;;;;;61.38;35.47;;;;;;;20.51;39.25;100178.19;4900110;29;20066;-71
2022/08/22 04:33:35;;;;;;;50.92;35.20;;;;;;;20.64;39.23;100193.00;4870188;29;20617;-71
2022/08/22 04:36:31;;;;;;;62.08;37.00;;;;;;;20.56;40.29;100181.25;4897686;29;20043;-73
2022/08/22 04:39:26;;;;;;;58.72;38.22;;;;;;;20.32;40.48;100171.06;4960092;28;20077;-73
2022/08/22 04:42:00;;;;;;;59.47;36.70;;;;;;;20.33;40.07;100172.78;4968284;28;20520;-72
2022/08/22 04:44:34;;;;;;;68.57;38.20;;;;;;;20.31;40.59;100172.94;4976914;28;20045;-72
2022/08/22 04:47:03;;;;;;;65.43;39.20;;;;;;;20.42;40.13;100184.56;5015908;28;20430;-73
2022/08/22 04:49:37;;;;;;;61.65;36.58;;;;;;;20.58;39.74;100177.38;5037353;28;20096;-72
2022/08/22 04:52:05;;;;;;;58.10;36.70;;;;;;;20.62;39.65;100175.19;5021569;28;20044;-72
2022/08/22 04:54:47;;;;;;;57.00;35.88;;;;;;;20.61;39.55;100178.91;5056964;28;20044;-70
2022/08/22 04:57:21;;;;;;;66.60;39.47;;;;;;;20.62;39.77;100186.88;5037157;28;20085;-71
2022/08/22 04:59:48;;;;;;;63.67;39.40;;;;;;;20.64;39.46;100192.16;5036963;28;20043;-70
2022/08/22 05:02:26;;;;;;;68.78;41.28;;;;;;;20.72;39.43;100184.06;5037236;28;20040;-70
2022/08/22 05:05:16;;;;;;;62.97;40.97;;;;;;;20.72;39.72;100180.50;5055182;28;20046;-70
2022/08/22 05:07:59;;;;;;;64.43;39.80;;;;;;;20.89;39.31;100166.84;5055615;28;20078;-70
2022/08/22 05:10:34;;;;;;;64.18;39.30;;;;;;;20.95;39.47;100166.22;5037250;28;20612;-71
2022/08/22 05:13:17;;;;;;;65.43;39.50;;;;;;;20.89;39.94;100156.00;5036792;28;20537;-71
2022/08/22 05:15:47;;;;;;;62.58;39.15;;;;;;;20.97;40.19;100152.50;5054961;28;20100;-71
2022/08/22 05:18:17;;;;;;;62.63;40.13;;;;;;;21.14;39.62;100151.53;5055542;28;20044;-72
2022/08/22 05:20:47;;;;;;;62.60;40.75;;;;;;;21.17;40.09;100143.06;5036961;28;20414;-72
2022/08/22 05:23:28;;;;;;;64.40;38.88;;;;;;;21.32;39.42;100155.00;5055413;28;20047;-71
2022/08/22 05:25:58;;;;;;;66.20;39.72;;;;;;;21.38;39.04;100156.19;5036890;28;20044;-72
2022/08/22 05:28:40;;;;;;;65.82;37.40;;;;;;;21.40;38.94;100154.19;5019820;28;20067;-72
2022/08/22 05:31:10;;;;;;;59.72;34.78;;;;;;;21.57;38.44;100150.44;5055142;28;20046;-71
2022/08/22 05:33:43;;;;;;;69.57;40.25;;;;;;;21.71;38.35;100144.38;5036878;28;20068;-71
2022/08/22 05:36:13;;;;;;;72.73;40.87;;;;;;;21.85;37.96;100161.00;5020241;28;20432;-71
2022/08/22 05:38:46;;;;;;;60.88;36.72;;;;;;;21.86;38.45;100157.28;5036753;28;20079;-73
2022/08/22 05:41:17;;;;;;;64.78;37.08;;;;;;;22.08;37.55;100164.75;5019980;28;20050;-71
2022/08/22 05:43:46;;;;;;;56.50;37.97;;;;;;;22.14;37.65;100160.50;5054284;28;20052;-72
2022/08/22 05:46:17;;;;;;;61.90;39.70;;;;;;;22.23;37.55;100159.50;5054430;28;20043;-72
2022/08/22 05:48:51;;;;;;;53.78;34.85;;;;;;;22.16;37.88;100175.63;5003224;28;20147;-72
2022/08/22 05:51:23;;;;;;;56.97;36.30;;;;;;;22.16;37.89;100177.47;5036685;28;20043;-71
2022/08/22 05:53:55;;;;;;;60.85;35.83;;;;;;;22.24;37.82;100182.91;5036461;28;20048;-72
2022/08/22 05:56:57;;;;;;;53.33;35.40;;;;;;;22.39;37.61;100170.31;5019617;28;20042;-70
2022/08/22 05:59:31;;;;;;;59.78;38.05;;;;;;;22.45;37.55;100165.06;5040811;28;20388;-72
2022/08/22 06:02:22;;;;;;;61.63;36.60;;;;;;;22.48;37.72;100169.28;5019649;28;20470;-73
2022/08/22 06:04:57;;;;;;;47.90;31.65;;;;;;;22.38;37.41;100164.03;5038176;28;20036;-77
2022/08/22 06:07:25;;;;;;;61.90;37.45;;;;;;;22.28;37.96;100189.69;5021205;28;20519;-78
2022/08/22 06:09:59;;;;;;;61.97;39.80;;;;;;;22.39;37.60;100173.88;5058054;28;20051;-78
2022/08/22 06:13:02;;;;;;;57.97;37.05;;;;;;;22.41;37.75;100173.72;5045150;28;20071;-78
2022/08/22 06:16:04;;;;;;;53.30;35.08;;;;;;;22.29;38.17;100175.09;5035549;28;20526;-77
2022/08/22 06:18:31;;;;;;;53.20;35.72;;;;;;;22.25;38.35;100179.16;5018213;28;20075;-77
2022/08/22 06:21:03;;;;;;;57.35;35.58;;;;;;;22.38;37.97;100171.34;5035285;28;20616;-77
2022/08/22 06:23:43;;;;;;;64.13;35.03;;;;;;;22.37;38.11;100181.34;5035671;28;20470;-78
2022/08/22 06:26:10;;;;;;;58.80;34.60;;;;;;;22.44;38.22;100176.09;5018350;28;20127;-79
2022/08/22 06:28:40;;;;;;;60.42;35.60;;;;;;;22.69;37.64;100185.88;5025976;28;20032;-79
2022/08/22 06:31:08;;;;;;;57.88;34.78;;;;;;;22.96;37.27;100183.78;5041424;28;20071;-76
2022/08/22 06:33:38;;;;;;;49.10;33.78;;;;;;;23.16;37.19;100185.03;5058925;28;20044;-78
2022/08/22 06:36:29;;;;;;;51.55;33.50;;;;;;;23.11;37.17;100190.19;5053645;28;20122;-77
2022/08/22 06:39:06;;;;;;;51.85;31.88;;;;;;;23.02;37.41;100200.25;5059267;28;20028;-79
2022/08/22 06:41:35;;;;;;;55.63;34.30;;;;;;;22.92;38.34;100193.28;5019312;28;20074;-76
2022/08/22 06:44:02;;;;;;;52.88;33.25;;;;;;;22.91;38.17;100187.00;5035958;28;20048;-76
2022/08/22 06:46:30;;;;;;;54.20;34.33;;;;;;;22.75;38.29;100193.38;5036031;28;20045;-78
2022/08/22 06:48:57;;;;;;;60.17;33.65;;;;;;;22.70;38.51;100200.31;5035139;28;20048;-77
2022/08/22 06:51:25;;;;;;;55.70;34.95;;;;;;;22.67;38.66;100198.81;5035039;28;20580;-76
2022/08/22 06:53:54;;;;;;;54.45;32.85;;;;;;;22.86;38.45;100196.72;5017025;28;20043;-78
2022/08/22 06:56:24;;;;;;;57.15;31.20;;;;;;;23.38;37.63;100195.13;5037875;28;20071;-76
2022/08/22 06:58:53;;;;;;;58.47;31.15;;;;;;;24.23;36.00;100190.50;5021202;28;20051;-78
2022/08/22 07:01:24;;;;;;;51.55;31.27;;;;;;;25.47;34.57;100189.75;5038791;28;20131;-76
2022/08/22 07:03:51;;;;;;;51.25;31.55;;;;;;;26.85;31.93;100189.31;5038470;28;20048;-75
2022/08/22 07:06:28;;;;;;;40.08;28.05;;;;;;;28.09;30.47;100188.13;5019929;28;20531;-77
2022/08/22 07:08:54;;;;;;;47.42;28.80;;;;;;;29.25;28.59;100192.81;5040199;28;20136;-77
2022/08/22 07:11:26;;;;;;;44.90;29.85;;;;;;;29.71;28.08;100193.66;5023776;28;20479;-76
2022/08/22 07:13:59;;;;;;;44.80;26.38;;;;;;;29.76;27.18;100191.97;5041864;28;20040;-76
2022/08/22 07:16:42;;;;;;;35.60;24.58;;;;;;;30.03;26.90;100191.78;5042694;28;20402;-76
2022/08/22 07:19:08;;;;;;;40.70;24.63;;;;;;;30.63;25.81;100196.59;5024495;28;20632;-73
2022/08/22 07:21:45;;;;;;;41.22;26.30;;;;;;;30.85;25.66;100196.16;5005867;28;20086;-72
2022/08/22 07:24:14;;;;;;;35.78;24.63;;;;;;;31.07;25.05;100205.66;5037689;28;20411;-72
2022/08/22 07:26:54;;;;;;;39.15;27.38;;;;;;;31.20;24.96;100205.53;5037522;28;20063;-72
2022/08/22 07:29:26;;;;;;;33.90;25.48;;;;;;;31.10;25.12;100198.88;5037717;28;20045;-71
2022/08/22 07:32:24;;;;;;;47.78;26.65;;;;;;;31.23;25.07;100213.34;5037606;28;20097;-72
2022/08/22 07:34:55;;;;;;;35.25;26.30;;;;;;;31.82;24.48;100203.47;5037541;28;20071;-71
2022/08/22 07:37:56;;;;;;;35.65;27.65;;;;;;;33.01;23.69;100204.25;5019323;28;20530;-73
2022/08/22 07:40:45;;;;;;;46.20;27.98;;;;;;;34.04;22.67;100206.09;4975471;28;20436;-74
2022/08/22 07:43:38;;;;;;;40.95;26.42;;;;;;;34.68;21.82;100206.63;4975940;28;20054;-73
2022/08/22 07:46:23;;;;;;;40.45;26.83;;;;;;;35.24;21.00;100206.34;4958918;28;20044;-72
2022/08/22 07:49:06;;;;;;;41.47;27.88;;;;;;;36.33;20.78;100199.84;4974927;28;20609;-72
2022/08/22 07:51:42;;;;;;;40.35;27.95;;;;;;;36.70;20.21;100197.06;4975307;28;20050;-72
2022/08/22 07:54:10;;;;;;;41.63;27.70;;;;;;;37.22;19.35;100204.63;4942744;28;20049;-74
2022/08/22 07:56:56;;;;;;;41.65;29.27;;;;;;;37.07;19.80;100206.19;4958830;28;20041;-73
2022/08/22 07:59:23;;;;;;;37.80;29.70;;;;;;;36.91;19.40;100211.94;4976737;28;20564;-72
2022/08/22 08:01:52;;;;;;;42.85;29.90;;;;;;;36.94;19.48;100203.91;4975063;28;20099;-74
2022/08/22 08:04:22;;;;;;;39.00;28.73;;;;;;;37.37;19.42;100208.28;4975078;28;20058;-75
2022/08/22 08:06:52;;;;;;;44.60;30.73;;;;;;;38.11;18.52;100204.38;4958397;28;20049;-75
2022/08/22 08:09:18;;;;;;;50.78;31.08;;;;;;;38.53;17.97;100208.84;4975579;28;20041;-73
2022/08/22 08:11:43;;;;;;;43.75;31.67;;;;;;;39.00;17.25;100214.94;4978133;28;20052;-74
2022/08/22 08:14:13;;;;;;;42.55;30.75;;;;;;;39.34;16.81;100212.31;4962106;28;20177;-74
2022/08/22 08:16:50;;;;;;;40.17;29.70;;;;;;;39.12;17.71;100209.88;4985718;28;20150;-74
2022/08/22 08:19:17;;;;;;;40.85;29.83;;;;;;;38.46;17.38;100207.16;4999373;28;20052;-74
2022/08/22 08:21:49;;;;;;;46.30;30.00;;;;;;;38.72;17.34;100216.34;4998899;28;20415;-76
2022/08/22 08:24:19;;;;;;;42.95;30.65;;;;;;;38.90;17.47;100214.94;4982137;28;20044;-76
2022/08/22 08:29:36;;;;;;;44.15;31.00;;;;;;;38.59;17.21;100203.00;4981702;28;20072;-75
2022/08/22 08:32:01;;;;;;;44.80;30.88;;;;;;;38.69;17.17;100196.59;4998061;28;20499;-74
2022/08/22 08:34:27;;;;;;;42.20;30.60;;;;;;;39.21;17.04;100213.75;4998042;28;20393;-70
2022/08/22 08:37:26;;;;;;;41.67;29.75;;;;;;;40.14;17.08;100214.97;5016014;28;20407;-69
2022/08/22 08:39:56;;;;;;;43.53;31.35;;;;;;;40.70;15.83;100259.22;5012612;28;20053;-71
2022/08/22 08:46:07;;;;;;;43.55;30.95;;;;;;;42.11;14.74;100192.31;4954969;28;20397;-74
2022/08/22 08:48:54;;;;;;;;;;;;;;;43.24;15.49;100220.84;4955325;28;20189;-74
2022/08/22 08:51:43;;;;;;;50.17;32.30;;;;;;;43.04;14.75;100215.63;4859589;29;19926;-73
2022/08/22 08:54:14;;;;;;;45.45;33.58;;;;;;;42.33;14.25;100214.06;4828701;29;20040;-73
2022/08/22 08:57:03;;;;;;;49.17;32.90;;;;;;;41.70;15.42;100211.69;4844277;29;20119;-74
2022/08/22 08:59:59;;;;;;;40.33;33.67;;;;;;;40.68;16.28;100214.78;4859757;29;20131;-73
2022/08/22 09:02:49;;;;;;;46.80;33.45;;;;;;;39.40;17.06;100210.31;4844054;29;20447;-75
2022/08/22 09:05:29;;;;;;;46.38;31.98;;;;;;;38.13;18.19;100199.38;4859560;29;20099;-73
2022/08/22 09:08:16;;;;;;;44.38;34.08;;;;;;;37.05;18.94;100205.63;4843790;29;20048;-73
2022/08/22 09:10:46;;;;;;;46.08;33.45;;;;;;;36.36;19.70;100210.41;4859804;29;20048;-75
2022/08/22 09:13:40;;;;;;;51.55;36.47;;;;;;;35.80;19.94;100215.38;4859397;29;20084;-73
2022/08/22 09:16:21;;;;;;;50.95;34.95;;;;;;;34.58;21.29;100208.16;4828595;29;20127;-74
2022/08/22 09:19:05;;;;;;;45.90;34.65;;;;;;;34.27;21.94;100207.91;4829311;29;20051;-73
2022/08/22 09:22:00;;;;;;;62.03;37.40;;;;;;;33.94;22.64;100206.75;4865292;29;20051;-75
2022/08/22 09:24:39;;;;;;;48.10;33.75;;;;;;;33.84;22.36;100206.56;4897658;29;20078;-74
2022/08/22 09:27:17;;;;;;;61.33;38.80;;;;;;;33.53;23.06;100205.94;4897063;29;20040;-74
2022/08/22 09:29:53;;;;;;;54.17;37.20;;;;;;;33.70;23.00;100211.53;5015254;28;20068;-73
2022/08/22 09:32:41;;;;;;;57.05;36.25;;;;;;;34.52;22.43;100208.34;5016054;28;20049;-73
2022/08/22 09:35:06;;;;;;;45.95;35.85;;;;;;;35.84;21.02;100218.50;5016919;28;20391;-73
2022/08/22 09:37:40;;;;;;;41.40;31.38;;;;;;;36.58;19.80;100207.50;5015955;28;20045;-73
2022/08/22 09:40:24;;;;;;;45.40;28.83;;;;;;;37.11;19.74;100222.34;5016006;28;20049;-74
2022/08/22 09:43:32;;;;;;;36.33;25.13;;;;;;;37.30;18.82;100213.28;5017538;28;20060;-74
2022/08/22 09:46:16;;;;;;;36.45;23.77;;;;;;;37.08;19.33;100220.94;5005860;28;20053;-73
2022/08/22 09:48:41;;;;;;;;;;;;;;;37.34;18.66;100211.66;5000585;28;20084;-74
2022/08/22 09:51:13;;;;;;;35.55;22.88;;;;;;;37.55;18.46;100206.16;5017057;28;19932;-74
2022/08/22 09:53:53;;;;;;;37.05;24.48;;;;;;;38.67;17.50;100207.16;5036957;28;20048;-73
2022/08/22 09:56:41;;;;;;;32.35;25.63;;;;;;;39.04;17.20;100216.06;5035455;28;20045;-73
2022/08/22 09:59:21;;;;;;;32.85;25.25;;;;;;;39.75;16.95;100212.09;5019173;28;20028;-72
2022/08/22 10:01:55;;;;;;;37.53;28.00;;;;;;;39.16;16.70;100208.19;5035431;28;20051;-73
2022/08/22 10:04:46;;;;;;;33.63;27.08;;;;;;;39.23;16.63;100205.09;5035198;28;20040;-73
2022/08/22 10:07:29;;;;;;;39.95;27.70;;;;;;;38.94;17.42;100210.47;5035242;28;20480;-74
2022/08/22 10:10:03;;;;;;;36.45;26.92;;;;;;;38.28;18.04;100209.66;5035567;28;20116;-74
2022/08/22 10:12:41;;;;;;;32.35;25.65;;;;;;;37.87;18.77;100200.41;5036512;28;20085;-75
2022/08/22 10:15:20;;;;;;;37.83;24.58;;;;;;;37.33;18.50;100196.06;5021257;28;20041;-72
2022/08/22 10:17:50;;;;;;;29.70;20.83;;;;;;;36.95;18.77;100200.00;5000714;28;20044;-72
2022/08/22 10:20:26;;;;;;;28.58;20.02;;;;;;;36.78;18.42;100195.75;5034666;28;20123;-75
2022/08/22 10:23:36;;;;;;;28.80;18.65;;;;;;;36.00;19.27;100196.19;5016250;28;20505;-73
2022/08/22 10:26:28;;;;;;;26.38;15.35;;;;;;;34.31;20.38;100195.25;5028736;28;20538;-74
2022/08/22 10:29:04;;;;;;;19.50;13.55;;;;;;;33.16;21.79;100185.25;5034450;28;20052;-72
2022/08/22 10:31:53;;;;;;;18.95;12.32;;;;;;;32.81;21.57;100183.38;5003653;28;20419;-73
2022/08/22 10:34:23;;;;;;;21.90;12.75;;;;;;;32.59;22.39;100201.63;5038073;28;20041;-73
2022/08/22 10:37:26;;;;;;;28.77;13.63;;;;;;;32.25;23.04;100194.97;5038874;28;20040;-74
2022/08/22 10:40:12;;;;;;;20.45;11.50;;;;;;;31.63;23.79;100194.41;5020546;28;20467;-73
2022/08/22 10:42:46;;;;;;;14.73;10.35;;;;;;;31.26;24.22;100192.78;5020372;28;20052;-72
2022/08/22 10:45:21;;;;;;;19.60;10.82;;;;;;;31.01;24.88;100190.06;5020708;28;20044;-72
2022/08/22 10:47:52;;;;;;;23.25;10.63;;;;;;;30.58;24.95;100190.09;5037626;28;20106;-72
2022/08/22 10:50:30;;;;;;;18.10;10.35;;;;;;;30.27;25.83;100188.22;5026319;28;20045;-73
2022/08/22 10:55:46;;;;;;;28.15;13.73;;;;;;;30.05;26.72;100186.91;5024666;28;20036;-72
2022/08/22 10:58:20;;;;;;;21.02;11.57;;;;;;;29.93;26.99;100181.25;5027868;28;20040;-73
2022/08/22 11:01:00;;;;;;;16.92;8.48;;;;;;;30.09;25.74;100185.41;5008401;28;20044;-74
2022/08/22 11:03:25;;;;;;;16.35;7.63;;;;;;;29.84;26.76;100175.19;4999792;28;20037;-72
2022/08/22 11:05:53;;;;;;;13.85;7.45;;;;;;;29.67;26.84;100182.28;4999876;28;20115;-73
2022/08/22 11:08:47;;;;;;;11.68;7.65;;;;;;;29.72;27.23;100178.88;5017298;28;20380;-72
2022/08/22 11:11:24;;;;;;;13.07;8.03;;;;;;;29.74;27.22;100176.75;5017712;28;20507;-76
2022/08/22 11:14:10;;;;;;;12.65;7.65;;;;;;;29.76;26.89;100182.88;5017637;28;20287;-75
2022/08/22 11:17:52;;;;;;;16.13;7.10;;;;;;;29.87;26.64;100173.91;5006541;28;20067;-73
2022/08/22 11:20:25;;;;;;;10.73;6.80;;;;;;;29.83;26.77;100169.91;4956936;28;20038;-72
2022/08/22 11:23:22;;;;;;;12.45;6.18;;;;;;;30.13;25.77;100167.41;4957110;28;20053;-73
2022/08/22 11:25:56;;;;;;;10.40;6.00;;;;;;;29.87;26.03;100177.50;4940910;28;20053;-70
2022/08/22 11:28:57;;;;;;;13.70;5.47;;;;;;;29.93;25.74;100165.59;4941144;28;20138;-73
2022/08/22 11:31:39;;;;;;;10.15;5.10;;;;;;;29.82;25.81;100169.06;4957074;28;20082;-73
2022/08/22 11:34:18;;;;;;;7.22;5.15;;;;;;;29.73;26.00;100173.16;4940644;28;20054;-68
2022/08/22 11:36:54;;;;;;;10.60;5.80;;;;;;;29.71;26.32;100158.78;4956057;28;20081;-68
2022/08/22 11:39:36;;;;;;;14.85;6.13;;;;;;;29.58;26.44;100159.69;4946394;28;20042;-69
2022/08/22 11:42:14;;;;;;;16.98;6.75;;;;;;;29.59;26.59;100152.31;4944873;28;20046;-70
2022/08/22 11:44:53;;;;;;;9.32;5.90;;;;;;;29.71;25.99;100166.19;4956483;28;20066;-70
2022/08/22 11:47:22;;;;;;;10.65;5.88;;;;;;;29.66;25.67;100164.13;4963421;28;20076;-71
2022/08/22 11:50:12;;;;;;;9.13;5.28;;;;;;;29.65;26.10;100156.09;4970215;28;20433;-72
2022/08/22 11:53:12;;;;;;;20.63;7.25;;;;;;;29.75;26.33;100154.53;4999352;28;20072;-70
2022/08/22 11:55:47;;;;;;;9.13;5.00;;;;;;;29.65;26.54;100156.94;4934450;28;20624;-69
2022/08/22 11:58:17;;;;;;;15.55;5.80;;;;;;;29.51;26.79;100150.66;4935854;28;20043;-70
2022/08/22 12:00:54;;;;;;;8.52;5.25;;;;;;;29.55;26.36;100173.91;4936551;28;20081;-68
2022/08/22 12:03:39;;;;;;;7.93;4.65;;;;;;;29.59;25.63;100158.66;4936150;28;20059;-69
2022/08/22 12:06:26;;;;;;;10.73;5.00;;;;;;;29.50;25.95;100153.63;4936774;28;20129;-69
2022/08/22 12:09:13;;;;;;;16.85;4.90;;;;;;;29.36;26.55;100157.47;4919764;28;20073;-69
2022/08/22 12:11:46;;;;;;;14.48;5.32;;;;;;;29.40;26.52;100150.53;4936380;28;20056;-69
2022/08/22 12:14:27;;;;;;;9.60;5.00;;;;;;;29.43;26.71;100161.09;4936854;28;20073;-68
2022/08/22 12:17:25;;;;;;;12.73;5.20;;;;;;;29.52;26.26;100155.09;4941480;28;20042;-71
2022/08/22 12:20:31;;;;;;;9.23;4.22;;;;;;;29.71;25.57;100160.69;4921459;28;20414;-68
2022/08/22 12:23:15;;;;;;;10.48;4.50;;;;;;;29.51;26.07;100160.81;4916723;29;20055;-67
2022/08/22 12:26:07;;;;;;;11.02;4.63;;;;;;;29.50;25.71;100159.13;4917100;29;20047;-66